Time;durP1;ratioP1;P1;durP2;ratioP2;P2;SDS_P1;SDS_P2;PMS_P1;PMS_P2;Temp;Humidity;BMP_temperature;BMP_pressure;BME280_temperature;BME280_humidity;BME280_pressure;Samples;Min_cycle;Max_cycle;Signal;HPM_P1;HPM_P2
2023/06/01 00:00:29;;;;;;;19.05;6.43;;;;;;;-143.48;84.28;118439.88;5037171;28;20045;-83
2023/06/01 00:02:55;;;;;;;14.38;6.97;;;;;;;-143.48;85.00;118439.88;5037614;28;20109;-81
2023/06/01 00:05:20;;;;;;;14.95;6.32;;;;;;;-143.48;84.85;118439.88;5020029;28;20021;-83
2023/06/01 00:07:46;;;;;;;13.07;6.55;;;;;;;-143.48;85.50;118439.88;5020204;28;20029;-82
2023/06/01 00:10:11;;;;;;;17.33;6.78;;;;;;;-143.48;84.63;118439.88;5037514;28;20017;-84
2023/06/01 00:12:36;;;;;;;13.68;6.80;;;;;;;-143.48;84.17;118439.88;5037935;28;20025;-82
2023/06/01 00:15:01;;;;;;;15.68;6.05;;;;;;;-143.48;84.37;118439.88;5037096;28;20457;-83
2023/06/01 00:17:28;;;;;;;12.48;6.00;;;;;;;-143.48;85.19;118439.88;5037413;28;20044;-83
2023/06/01 00:19:54;;;;;;;14.23;6.57;;;;;;;-143.48;85.36;118439.88;5019502;28;20029;-83
2023/06/01 00:22:19;;;;;;;13.43;6.20;;;;;;;-143.48;85.19;118439.88;5019114;28;20029;-83
2023/06/01 00:24:45;;;;;;;11.23;6.20;;;;;;;-143.48;85.85;118439.88;5003926;28;20457;-83
2023/06/01 00:27:10;;;;;;;12.32;5.88;;;;;;;-143.48;85.52;118439.88;5036413;28;20060;-83
2023/06/01 00:29:36;;;;;;;15.05;6.72;;;;;;;-143.48;86.22;118439.88;5019653;28;20052;-82
2023/06/01 00:32:01;;;;;;;14.15;5.90;;;;;;;-143.48;85.86;118439.88;5037298;28;20048;-83
2023/06/01 00:34:26;;;;;;;13.85;6.35;;;;;;;-143.48;84.17;118439.88;5019880;28;20120;-83
2023/06/01 00:36:52;;;;;;;10.70;5.95;;;;;;;-143.48;84.91;118439.88;5037626;28;20101;-82
2023/06/01 00:39:17;;;;;;;13.93;5.43;;;;;;;-143.48;83.95;118439.88;5019563;28;20032;-83
2023/06/01 00:41:42;;;;;;;11.82;5.65;;;;;;;-143.48;84.13;118439.88;5019629;28;20422;-82
2023/06/01 00:44:08;;;;;;;11.95;6.03;;;;;;;-143.48;83.55;118439.88;5019761;28;20018;-83
2023/06/01 00:46:34;;;;;;;13.85;5.90;;;;;;;-143.48;84.55;118439.88;5018248;28;20030;-83
2023/06/01 00:48:59;;;;;;;15.02;5.63;;;;;;;-143.48;83.48;118439.88;5019248;28;20053;-82
2023/06/01 00:51:25;;;;;;;12.57;5.65;;;;;;;-143.48;84.51;118439.88;5018755;28;20036;-83
2023/06/01 00:53:51;;;;;;;11.07;5.68;;;;;;;-143.48;84.34;118439.88;5019281;28;20511;-83
2023/06/01 00:56:17;;;;;;;13.60;5.75;;;;;;;-143.48;85.04;118439.88;5036914;28;20017;-83
2023/06/01 00:58:43;;;;;;;14.23;6.10;;;;;;;-143.48;84.29;118439.88;5019689;28;20021;-83
2023/06/01 01:01:18;;;;;;;11.82;5.85;;;;;;;-143.48;84.68;118439.88;5036266;28;20476;-82
2023/06/01 01:03:46;;;;;;;14.77;6.28;;;;;;;-143.48;84.12;118439.88;5018454;28;20048;-83
2023/06/01 01:06:25;;;;;;;12.05;6.15;;;;;;;-143.48;84.16;118439.88;5017970;28;20405;-82
2023/06/01 01:09:07;;;;;;;16.65;6.40;;;;;;;-143.48;84.18;118439.88;5036100;28;20021;-83
2023/06/01 01:11:34;;;;;;;14.57;6.40;;;;;;;-143.48;84.77;118439.88;5035905;28;20365;-83
2023/06/01 01:14:22;;;;;;;14.23;6.18;;;;;;;-143.48;84.50;118439.88;5036483;28;20488;-83
2023/06/01 01:17:10;;;;;;;15.52;6.53;;;;;;;-143.48;84.72;118439.88;5018125;28;20047;-83
2023/06/01 01:19:42;;;;;;;14.77;6.35;;;;;;;-143.48;85.75;118439.88;5018371;28;20029;-83
2023/06/01 01:22:38;;;;;;;14.10;6.55;;;;;;;-143.48;86.47;118439.88;5018205;28;20060;-83
2023/06/01 01:25:32;;;;;;;13.43;6.18;;;;;;;-143.48;85.01;118439.88;5017767;28;20029;-83
2023/06/01 01:28:12;;;;;;;13.77;6.30;;;;;;;-143.48;84.64;118439.88;5034810;28;20079;-83
2023/06/01 01:30:41;;;;;;;9.90;5.70;;;;;;;-143.48;84.63;118439.88;5017304;28;20033;-83
2023/06/01 01:33:08;;;;;;;12.35;5.93;;;;;;;-143.48;86.32;118439.88;5036472;28;20108;-82
2023/06/01 01:35:35;;;;;;;16.60;6.40;;;;;;;-143.48;85.93;118439.88;5018293;28;20053;-83
2023/06/01 01:38:00;;;;;;;13.57;6.15;;;;;;;-143.48;86.31;118439.88;5017953;28;20124;-83
2023/06/01 01:40:25;;;;;;;11.32;5.80;;;;;;;-143.48;85.88;118439.88;5036183;28;20041;-83
2023/06/01 01:42:52;;;;;;;12.18;5.65;;;;;;;-143.48;85.31;118439.88;5036456;28;20108;-83
2023/06/01 01:45:18;;;;;;;15.13;5.82;;;;;;;-143.48;85.84;118439.88;5017925;28;20057;-83
2023/06/01 01:47:55;;;;;;;15.65;5.90;;;;;;;-143.48;83.72;118439.88;5035552;28;20104;-83
2023/06/01 01:50:27;;;;;;;16.50;6.13;;;;;;;-143.48;84.76;118439.88;5017968;28;20029;-83
2023/06/01 01:52:54;;;;;;;9.65;5.78;;;;;;;-143.48;85.09;118439.88;5018832;28;20036;-82
2023/06/01 01:55:23;;;;;;;12.20;5.78;;;;;;;-143.48;84.97;118439.88;5018956;28;20045;-83
2023/06/01 01:57:50;;;;;;;10.75;5.72;;;;;;;-143.48;84.32;118439.88;5035778;28;20053;-82
2023/06/01 02:00:17;;;;;;;13.43;5.75;;;;;;;-143.48;83.25;118439.88;5035716;28;20060;-83
2023/06/01 02:02:45;;;;;;;11.77;5.65;;;;;;;-143.48;84.31;118439.88;5035928;28;20067;-83
2023/06/01 02:05:11;;;;;;;12.00;5.95;;;;;;;-143.48;84.24;118439.88;5036087;28;20018;-83
2023/06/01 02:07:36;;;;;;;14.88;5.85;;;;;;;-143.48;83.76;118439.88;5017848;28;20029;-83
2023/06/01 02:10:02;;;;;;;14.35;6.20;;;;;;;-143.48;82.92;118439.88;5017841;28;20022;-83
2023/06/01 02:12:27;;;;;;;13.23;6.63;;;;;;;-143.48;83.47;118439.88;5035159;28;20029;-83
2023/06/01 02:14:52;;;;;;;13.77;6.07;;;;;;;-143.48;84.24;118439.88;5035188;28;20049;-83
2023/06/01 02:17:18;;;;;;;14.45;6.05;;;;;;;-143.48;84.55;118439.88;5036098;28;20049;-82
2023/06/01 02:19:43;;;;;;;14.45;6.28;;;;;;;-143.48;84.35;118439.88;5035418;28;20026;-83
2023/06/01 02:22:09;;;;;;;13.05;6.15;;;;;;;-143.48;83.02;118439.88;5017812;28;20056;-83
2023/06/01 02:24:34;;;;;;;13.30;6.72;;;;;;;-143.48;83.86;118439.88;5017444;28;20021;-83
2023/06/01 02:27:00;;;;;;;16.23;6.63;;;;;;;-143.48;84.01;118439.88;5017084;28;20171;-83
2023/06/01 02:29:25;;;;;;;12.45;6.25;;;;;;;-143.48;83.96;118439.88;5035210;28;20029;-82
2023/06/01 02:31:52;;;;;;;15.55;5.80;;;;;;;-143.48;83.28;118439.88;5017295;28;20112;-83
2023/06/01 02:34:18;;;;;;;11.63;6.22;;;;;;;-143.48;83.45;118439.88;5017252;28;20036;-83
2023/06/01 02:36:43;;;;;;;14.65;6.32;;;;;;;-143.48;82.76;118439.88;5017599;28;20022;-83
2023/06/01 02:39:09;;;;;;;16.38;6.57;;;;;;;-143.48;83.12;118439.88;5034660;28;20036;-82
2023/06/01 02:41:34;;;;;;;17.25;6.53;;;;;;;-143.48;82.92;118439.88;5035721;28;20124;-82
2023/06/01 02:43:59;;;;;;;16.80;6.78;;;;;;;-143.48;83.58;118439.88;5017383;28;20022;-83
2023/06/01 02:46:25;;;;;;;15.23;6.40;;;;;;;-143.48;83.19;118439.88;5035241;28;20461;-83
2023/06/01 02:48:51;;;;;;;10.30;5.90;;;;;;;-143.48;83.10;118439.88;5017289;28;20124;-83
2023/06/01 02:51:18;;;;;;;13.60;6.15;;;;;;;-143.48;82.69;118439.88;5034629;28;20439;-83
2023/06/01 02:53:44;;;;;;;13.00;5.57;;;;;;;-143.48;82.82;118439.88;5035766;28;20060;-83
2023/06/01 02:56:10;;;;;;;13.65;6.05;;;;;;;-143.48;83.96;118439.88;5034937;28;20396;-83
2023/06/01 02:58:36;;;;;;;16.85;6.35;;;;;;;-143.48;83.81;118439.88;5017074;28;20112;-82
2023/06/01 03:01:01;;;;;;;14.63;6.35;;;;;;;-143.48;84.05;118439.88;5014421;28;20155;-82
2023/06/01 03:03:27;;;;;;;14.18;6.57;;;;;;;-143.48;85.06;118439.88;5014306;28;20033;-82
2023/06/01 03:05:53;;;;;;;15.13;6.53;;;;;;;-143.48;84.58;118439.88;5013466;28;20453;-83
2023/06/01 03:08:18;;;;;;;13.82;6.22;;;;;;;-143.48;84.60;118439.88;5015052;28;20025;-82
2023/06/01 03:10:44;;;;;;;17.13;6.60;;;;;;;-143.48;85.44;118439.88;5014755;28;20057;-83
2023/06/01 03:13:10;;;;;;;16.63;6.57;;;;;;;-143.48;85.03;118439.88;5014656;28;20026;-82
2023/06/01 03:15:37;;;;;;;13.80;6.40;;;;;;;-143.48;85.95;118439.88;5014974;28;20386;-82
2023/06/01 03:18:03;;;;;;;15.75;6.30;;;;;;;-143.48;85.34;118439.88;5013760;28;20477;-83
2023/06/01 03:20:28;;;;;;;15.02;6.10;;;;;;;-143.48;85.96;118439.88;5014035;28;20080;-82
2023/06/01 03:22:53;;;;;;;14.45;6.80;;;;;;;-143.48;86.06;118439.88;5014087;28;20030;-82
2023/06/01 03:25:19;;;;;;;14.73;6.90;;;;;;;-143.48;85.19;118439.88;5015291;28;20028;-83
2023/06/01 03:27:44;;;;;;;15.15;6.13;;;;;;;-143.48;85.91;118439.88;5015128;28;20373;-82
2023/06/01 03:30:10;;;;;;;14.75;6.07;;;;;;;-143.48;85.13;118439.88;5014899;28;20026;-81
2023/06/01 03:32:42;;;;;;;21.38;6.13;;;;;;;-143.48;85.36;118439.88;5013581;28;20080;-83
2023/06/01 03:35:09;;;;;;;17.05;6.35;;;;;;;-143.48;84.45;118439.88;5014869;28;20022;-82
2023/06/01 03:37:35;;;;;;;18.30;6.07;;;;;;;-143.48;84.30;118439.88;5014535;28;20022;-82
2023/06/01 03:40:01;;;;;;;17.25;6.70;;;;;;;-143.48;84.53;118439.88;5014938;28;20030;-82
2023/06/01 03:42:26;;;;;;;16.05;6.30;;;;;;;-143.48;83.84;118439.88;5014789;28;20060;-82
2023/06/01 03:44:52;;;;;;;17.58;5.97;;;;;;;-143.48;85.34;118439.88;5014589;28;20062;-82
2023/06/01 03:47:17;;;;;;;13.98;6.75;;;;;;;-143.48;85.00;118439.88;5013428;28;20033;-83
2023/06/01 03:49:43;;;;;;;14.35;6.63;;;;;;;-143.48;84.60;118439.88;5013137;28;20026;-82
2023/06/01 03:52:08;;;;;;;14.55;6.50;;;;;;;-143.48;83.51;118439.88;5016658;28;20080;-82
2023/06/01 03:54:34;;;;;;;16.38;6.50;;;;;;;-143.48;83.84;118439.88;5017974;28;20444;-81
2023/06/01 03:57:00;;;;;;;19.70;6.43;;;;;;;-143.48;83.17;118439.88;5018344;28;20190;-82
2023/06/01 03:59:25;;;;;;;10.48;5.80;;;;;;;-143.48;82.49;118439.88;5016548;28;20130;-82
2023/06/01 04:01:51;;;;;;;19.42;6.78;;;;;;;-143.48;82.72;118439.88;5037690;28;20384;-82
2023/06/01 04:04:22;;;;;;;13.38;6.18;;;;;;;-143.48;84.16;118439.88;5037865;28;20033;-82
2023/06/01 04:06:49;;;;;;;14.77;6.40;;;;;;;-143.48;83.90;118439.88;5037030;28;20404;-83
2023/06/01 04:09:15;;;;;;;18.05;6.28;;;;;;;-143.48;83.17;118439.88;5020759;28;20479;-82
2023/06/01 04:11:40;;;;;;;11.52;6.50;;;;;;;-143.48;83.63;118439.88;5038243;28;20097;-82
2023/06/01 04:14:05;;;;;;;20.08;6.43;;;;;;;-143.48;83.06;118439.88;5020695;28;20021;-82
2023/06/01 04:16:31;;;;;;;16.85;6.50;;;;;;;-143.48;81.77;118439.88;5021243;28;20026;-83
2023/06/01 04:18:56;;;;;;;14.43;6.45;;;;;;;-143.48;83.01;118439.88;5020291;28;20036;-83
2023/06/01 04:21:23;;;;;;;21.80;7.22;;;;;;;-143.48;83.67;118439.88;5020671;28;20056;-82
2023/06/01 04:23:49;;;;;;;15.88;6.65;;;;;;;-143.48;83.61;118439.88;5020810;28;20017;-82
2023/06/01 04:26:15;;;;;;;13.73;6.50;;;;;;;-143.48;82.92;118439.88;5037542;28;20024;-83
2023/06/01 04:28:43;;;;;;;13.93;6.22;;;;;;;-143.48;82.92;118439.88;5037649;28;20389;-82
2023/06/01 04:31:16;;;;;;;15.02;6.43;;;;;;;-143.48;82.45;118439.88;5020074;28;20021;-81
2023/06/01 04:33:41;;;;;;;18.77;5.93;;;;;;;-143.48;83.07;118439.88;5038376;28;20108;-82
2023/06/01 04:36:07;;;;;;;12.10;5.50;;;;;;;-143.48;82.73;118439.88;5020004;28;20060;-82
2023/06/01 04:38:34;;;;;;;17.35;6.18;;;;;;;-143.48;82.14;118439.88;5037704;28;20044;-81
2023/06/01 04:41:00;;;;;;;15.20;5.70;;;;;;;-143.48;83.29;118439.88;5037079;28;20105;-81
2023/06/01 04:43:27;;;;;;;15.63;6.10;;;;;;;-143.48;83.37;118439.88;5019719;28;20061;-82
2023/06/01 04:45:52;;;;;;;12.88;5.68;;;;;;;-143.48;82.63;118439.88;5019906;28;20022;-81
2023/06/01 04:48:18;;;;;;;20.05;5.95;;;;;;;-143.48;82.61;118439.88;5018973;28;20032;-82
2023/06/01 04:50:44;;;;;;;13.43;5.90;;;;;;;-143.48;82.08;118439.88;5036813;28;20060;-82
2023/06/01 04:53:09;;;;;;;16.58;6.18;;;;;;;-143.48;81.87;118439.88;5018713;28;20033;-82
2023/06/01 04:55:35;;;;;;;13.65;5.50;;;;;;;-143.48;81.73;118439.88;5037855;28;20022;-82
2023/06/01 04:58:00;;;;;;;11.30;5.10;;;;;;;-143.48;81.79;118439.88;5019015;28;20103;-82
2023/06/01 05:00:25;;;;;;;14.50;5.40;;;;;;;-143.48;81.97;118439.88;5037528;28;20037;-82
2023/06/01 05:02:51;;;;;;;11.75;5.00;;;;;;;-143.48;81.95;118439.88;5037709;28;20021;-82
2023/06/01 05:05:17;;;;;;;12.15;5.57;;;;;;;-143.48;81.32;118439.88;5037309;28;20029;-83
2023/06/01 05:07:42;;;;;;;13.50;5.78;;;;;;;-143.48;81.48;118439.88;5019605;28;20025;-81
2023/06/01 05:10:10;;;;;;;16.63;5.68;;;;;;;-143.48;81.97;118439.88;5018923;28;20414;-83
2023/06/01 05:12:37;;;;;;;17.63;5.40;;;;;;;-143.48;81.36;118439.88;5036593;28;20095;-82
2023/06/01 05:15:04;;;;;;;10.00;5.20;;;;;;;-143.48;82.17;118439.88;5018757;28;20024;-82
2023/06/01 05:17:30;;;;;;;8.85;4.93;;;;;;;-143.48;81.52;118439.88;5036808;28;20436;-82
2023/06/01 05:19:56;;;;;;;11.80;5.10;;;;;;;-143.48;81.10;118439.88;5018736;28;20061;-82
2023/06/01 05:22:22;;;;;;;13.27;5.55;;;;;;;-143.48;81.64;118439.88;5018695;28;20021;-83
2023/06/01 05:24:47;;;;;;;13.88;5.28;;;;;;;-143.48;79.98;118439.88;5036649;28;20422;-82
2023/06/01 05:27:13;;;;;;;14.63;5.60;;;;;;;-143.48;79.17;118439.88;5017471;28;20451;-82
2023/06/01 05:29:38;;;;;;;13.85;6.00;;;;;;;-143.48;79.28;118439.88;5035816;28;20022;-82
2023/06/01 05:32:04;;;;;;;17.17;5.50;;;;;;;-143.48;80.54;118439.88;5017440;28;20025;-82
2023/06/01 05:34:29;;;;;;;13.60;5.22;;;;;;;-143.48;78.77;118439.88;5017462;28;20484;-82
2023/06/01 05:36:54;;;;;;;13.30;6.10;;;;;;;-143.48;79.58;118439.88;5035371;28;20021;-82
2023/06/01 05:39:20;;;;;;;12.50;6.00;;;;;;;-143.48;78.54;118439.88;5035071;28;20028;-82
2023/06/01 05:41:45;;;;;;;11.93;5.95;;;;;;;-143.48;78.38;118439.88;5017799;28;20470;-82
2023/06/01 05:44:11;;;;;;;16.38;5.80;;;;;;;-143.48;77.51;118439.88;5017544;28;20120;-82
2023/06/01 05:46:36;;;;;;;13.30;5.85;;;;;;;-143.48;78.01;118439.88;5034803;28;20018;-82
2023/06/01 05:49:01;;;;;;;16.73;6.22;;;;;;;-143.48;77.62;118439.88;5016929;28;20503;-83
2023/06/01 05:51:27;;;;;;;16.15;6.18;;;;;;;-143.48;78.18;118439.88;5035184;28;20025;-83
2023/06/01 05:53:52;;;;;;;9.20;5.50;;;;;;;-143.48;77.07;118439.88;5016697;28;20021;-83
2023/06/01 05:56:17;;;;;;;14.88;6.45;;;;;;;-143.48;75.81;118439.88;5016750;28;20083;-83
2023/06/01 05:58:44;;;;;;;16.48;6.18;;;;;;;-143.48;75.85;118439.88;5034730;28;20025;-83
2023/06/01 06:01:10;;;;;;;15.52;5.80;;;;;;;-143.48;76.91;118439.88;5017407;28;20140;-82
2023/06/01 06:03:36;;;;;;;15.52;5.95;;;;;;;-143.48;76.60;118439.88;5016759;28;20052;-83
2023/06/01 06:06:02;;;;;;;10.82;5.47;;;;;;;-143.48;74.99;118439.88;5034584;28;20380;-83
2023/06/01 06:08:29;;;;;;;14.75;5.63;;;;;;;-143.48;74.77;118439.88;5033799;28;20025;-83
2023/06/01 06:10:54;;;;;;;15.85;5.80;;;;;;;-143.48;74.70;118439.88;5016224;28;20056;-84
2023/06/01 06:13:19;;;;;;;13.13;5.20;;;;;;;-143.48;73.93;118439.88;5016511;28;20112;-83
2023/06/01 06:15:45;;;;;;;11.30;5.05;;;;;;;-143.48;75.31;118439.88;5034330;28;20035;-83
2023/06/01 06:18:10;;;;;;;12.55;5.07;;;;;;;-143.48;74.99;118439.88;5016869;28;20025;-83
2023/06/01 06:20:35;;;;;;;10.48;5.15;;;;;;;-143.48;75.59;118439.88;5034384;28;20049;-83
2023/06/01 06:23:01;;;;;;;17.42;5.50;;;;;;;-143.48;75.54;118439.88;5017335;28;20029;-83
2023/06/01 06:25:26;;;;;;;13.57;5.10;;;;;;;-143.48;74.55;118439.88;5034191;28;20603;-83
2023/06/01 06:27:51;;;;;;;10.65;5.07;;;;;;;-143.48;76.64;118439.88;5016515;28;20021;-84
2023/06/01 06:30:17;;;;;;;15.60;5.10;;;;;;;-143.48;75.33;118439.88;5034701;28;20116;-83
2023/06/01 06:32:42;;;;;;;13.35;5.15;;;;;;;-143.48;76.73;118439.88;5034290;28;20393;-82
2023/06/01 06:35:12;;;;;;;11.88;4.55;;;;;;;-143.48;74.54;118439.88;5016621;28;20366;-83
2023/06/01 06:37:37;;;;;;;13.40;4.90;;;;;;;-143.48;73.30;118439.88;5034562;28;20040;-83
2023/06/01 06:40:03;;;;;;;9.45;4.43;;;;;;;-143.48;74.11;118439.88;5016265;28;20021;-82
2023/06/01 06:42:29;;;;;;;15.93;4.88;;;;;;;-143.48;72.98;118439.88;5016127;28;20365;-83
2023/06/01 06:44:56;;;;;;;13.35;4.38;;;;;;;-143.48;72.77;118439.88;5016264;28;20025;-83
2023/06/01 06:47:21;;;;;;;11.25;4.35;;;;;;;-143.48;71.79;118439.88;5016220;28;20514;-83
2023/06/01 06:49:47;;;;;;;13.82;4.53;;;;;;;-143.48;70.44;118439.88;5016341;28;20053;-83
2023/06/01 06:52:12;;;;;;;7.65;4.07;;;;;;;-143.48;69.16;118439.88;5016033;28;20061;-83
2023/06/01 06:54:40;;;;;;;13.23;4.53;;;;;;;-143.48;69.99;118439.88;5034351;28;20447;-83
2023/06/01 06:57:07;;;;;;;15.88;4.40;;;;;;;-143.48;67.42;118439.88;5015740;28;20026;-83
2023/06/01 06:59:32;;;;;;;10.40;4.35;;;;;;;-143.48;69.39;118439.88;5015998;28;20025;-83
2023/06/01 07:01:57;;;;;;;12.00;4.18;;;;;;;-143.48;70.42;118439.88;5015915;28;20405;-83
2023/06/01 07:04:22;;;;;;;10.00;4.25;;;;;;;-143.48;70.93;118439.88;5033865;28;20064;-83
2023/06/01 07:06:48;;;;;;;8.15;3.47;;;;;;;-143.48;69.96;118439.88;5015811;28;20465;-83
2023/06/01 07:09:13;;;;;;;9.43;3.67;;;;;;;-143.48;70.84;118439.88;5033648;28;20033;-83
2023/06/01 07:11:42;;;;;;;12.10;4.13;;;;;;;-143.48;69.43;118439.88;5033913;28;20029;-83
2023/06/01 07:14:08;;;;;;;8.25;3.92;;;;;;;-143.48;69.43;118439.88;5016002;28;20029;-83
2023/06/01 07:16:33;;;;;;;9.43;3.90;;;;;;;-143.48;69.25;118439.88;5015962;28;20080;-83
2023/06/01 07:18:58;;;;;;;11.60;4.10;;;;;;;-143.48;69.02;118439.88;5033539;28;20022;-83
2023/06/01 07:21:23;;;;;;;9.55;3.92;;;;;;;-143.48;69.09;118439.88;5033911;28;20369;-84
2023/06/01 07:23:49;;;;;;;9.13;3.83;;;;;;;-143.48;68.94;118439.88;5015838;28;20021;-83
2023/06/01 07:26:14;;;;;;;8.57;3.70;;;;;;;-143.48;67.18;118439.88;5035176;28;20021;-83
2023/06/01 07:28:41;;;;;;;7.72;3.65;;;;;;;-143.48;66.94;118439.88;5037202;28;20029;-82
2023/06/01 07:31:07;;;;;;;9.10;3.97;;;;;;;-143.48;66.31;118439.88;5019461;28;20034;-83
2023/06/01 07:33:33;;;;;;;14.70;4.25;;;;;;;-143.48;64.28;118439.88;5037378;28;20036;-83
2023/06/01 07:35:59;;;;;;;10.30;3.80;;;;;;;-143.48;64.77;118439.88;5019903;28;20105;-83
2023/06/01 07:38:24;;;;;;;10.77;4.10;;;;;;;-143.48;65.69;118439.88;5019655;28;20053;-83
2023/06/01 07:40:50;;;;;;;7.57;3.47;;;;;;;-143.48;66.12;118439.88;5019990;28;20025;-84
2023/06/01 07:43:16;;;;;;;8.57;3.65;;;;;;;-143.48;64.24;118439.88;5019635;28;20033;-84
2023/06/01 07:45:41;;;;;;;9.48;3.88;;;;;;;-143.48;64.10;118439.88;5019233;28;20056;-84
2023/06/01 07:48:07;;;;;;;10.63;3.85;;;;;;;-143.48;63.16;118439.88;5037095;28;20022;-83
2023/06/01 07:50:33;;;;;;;6.82;3.60;;;;;;;-143.48;63.01;118439.88;5019693;28;20495;-83
2023/06/01 07:52:58;;;;;;;8.75;3.33;;;;;;;-143.48;63.40;118439.88;5037274;28;20022;-83
2023/06/01 07:55:24;;;;;;;9.70;3.90;;;;;;;-143.48;64.10;118439.88;5036803;28;20040;-83
2023/06/01 07:57:50;;;;;;;11.52;3.67;;;;;;;-143.48;62.53;118439.88;5018905;28;20025;-82
2023/06/01 08:00:17;;;;;;;11.77;3.80;;;;;;;-143.48;64.63;118439.88;5036322;28;20046;-82
2023/06/01 08:02:43;;;;;;;8.27;3.42;;;;;;;-143.48;62.52;118439.88;5018226;28;20120;-81
2023/06/01 08:05:10;;;;;;;10.88;3.75;;;;;;;-143.48;62.06;118439.88;5016536;28;20116;-81
2023/06/01 08:07:37;;;;;;;9.40;3.80;;;;;;;-143.48;62.02;118439.88;5016872;28;20473;-82
2023/06/01 08:10:07;;;;;;;9.02;3.78;;;;;;;-143.48;59.43;118439.88;5034289;28;20086;-81
2023/06/01 08:12:32;;;;;;;8.52;3.60;;;;;;;-143.48;60.72;118439.88;5034710;28;20029;-82
2023/06/01 08:14:58;;;;;;;8.15;3.38;;;;;;;-143.48;60.14;118439.88;5018385;28;20113;-83
2023/06/01 08:17:24;;;;;;;11.30;3.80;;;;;;;-143.48;61.00;118439.88;5037013;28;20092;-83
2023/06/01 08:19:50;;;;;;;8.80;3.63;;;;;;;-143.48;60.28;118439.88;5036327;28;20075;-81
2023/06/01 08:22:16;;;;;;;9.52;3.67;;;;;;;-143.48;59.79;118439.88;5036196;28;20104;-81
2023/06/01 08:24:43;;;;;;;9.75;3.60;;;;;;;-143.48;59.02;118439.88;5018462;28;20030;-81
2023/06/01 08:27:21;;;;;;;7.95;3.50;;;;;;;-143.48;58.07;118439.88;5036639;28;20518;-82
2023/06/01 08:29:48;;;;;;;8.30;3.22;;;;;;;-143.48;57.34;118439.88;5036154;28;20412;-82
2023/06/01 08:32:14;;;;;;;10.00;3.70;;;;;;;-143.48;57.63;118439.88;5036296;28;20100;-82
2023/06/01 08:34:40;;;;;;;9.65;3.50;;;;;;;-143.48;57.40;118439.88;5036473;28;20030;-83
2023/06/01 08:37:05;;;;;;;7.50;3.40;;;;;;;-143.48;57.24;118439.88;5017601;28;20021;-82
2023/06/01 08:39:30;;;;;;;8.18;3.58;;;;;;;-143.48;58.32;118439.88;5036449;28;20033;-83
2023/06/01 08:42:05;;;;;;;9.68;3.30;;;;;;;-143.48;57.19;118439.88;5035771;28;20104;-82
2023/06/01 08:44:37;;;;;;;12.18;4.05;;;;;;;-143.48;58.86;118439.88;5036480;28;20056;-83
2023/06/01 08:47:03;;;;;;;8.30;3.40;;;;;;;-143.48;57.03;118439.88;5036144;28;20104;-82
2023/06/01 08:49:30;;;;;;;7.85;3.20;;;;;;;-143.48;57.51;118439.88;5036045;28;20458;-82
2023/06/01 08:51:59;;;;;;;9.30;3.30;;;;;;;-143.48;57.88;118439.88;5017919;28;20018;-83
2023/06/01 08:54:24;;;;;;;8.40;3.58;;;;;;;-143.48;56.82;118439.88;5035509;28;20043;-83
2023/06/01 08:56:50;;;;;;;7.78;3.28;;;;;;;-143.48;57.56;118439.88;5017735;28;20104;-83
2023/06/01 08:59:15;;;;;;;8.32;3.45;;;;;;;-143.48;56.55;118439.88;5035956;28;20036;-82
2023/06/01 09:01:42;;;;;;;11.23;3.50;;;;;;;-143.48;57.31;118439.88;5017823;28;20052;-82
2023/06/01 09:04:09;;;;;;;8.18;3.50;;;;;;;-143.48;58.34;118439.88;5017141;28;20030;-82
2023/06/01 09:06:36;;;;;;;7.80;3.35;;;;;;;-143.48;59.63;118439.88;5017875;28;20029;-80
2023/06/01 09:09:02;;;;;;;10.32;3.67;;;;;;;-143.48;60.36;118439.88;5035129;28;20104;-82
2023/06/01 09:11:27;;;;;;;9.25;3.80;;;;;;;-143.48;57.36;118439.88;5017085;28;20450;-82
2023/06/01 09:13:53;;;;;;;9.93;3.50;;;;;;;-143.48;55.17;118439.88;5035497;28;20035;-81
2023/06/01 09:16:18;;;;;;;7.28;3.33;;;;;;;-143.48;56.77;118439.88;5016987;28;20021;-81
2023/06/01 09:18:52;;;;;;;8.15;3.40;;;;;;;-143.48;57.08;118439.88;5017086;28;20036;-82
2023/06/01 09:21:17;;;;;;;10.25;3.42;;;;;;;-143.48;56.49;118439.88;5035511;28;20036;-78
2023/06/01 09:23:44;;;;;;;10.77;3.88;;;;;;;-143.48;58.89;118439.88;5035411;28;20029;-82
2023/06/01 09:26:12;;;;;;;12.65;3.58;;;;;;;-143.48;59.22;118439.88;5034953;28;20026;-82
2023/06/01 09:28:56;;;;;;;9.23;3.50;;;;;;;-143.48;57.35;118439.88;5035457;28;20059;-82
2023/06/01 09:31:46;;;;;;;8.93;3.70;;;;;;;-143.48;56.78;118439.88;5035049;28;20026;-82
2023/06/01 09:34:18;;;;;;;13.57;4.18;;;;;;;-143.48;57.41;118439.88;5035501;28;20480;-81
2023/06/01 09:36:45;;;;;;;9.88;3.90;;;;;;;-143.48;58.30;118439.88;5036623;28;20045;-81
2023/06/01 09:39:20;;;;;;;8.77;3.58;;;;;;;-143.48;57.13;118439.88;5038585;28;20088;-81
2023/06/01 09:41:51;;;;;;;7.30;3.53;;;;;;;-143.48;57.67;118439.88;5037841;28;20053;-81
2023/06/01 09:44:29;;;;;;;11.82;3.58;;;;;;;-143.48;58.70;118439.88;5035376;28;20388;-82
2023/06/01 09:47:01;;;;;;;10.70;3.67;;;;;;;-143.48;57.56;118439.88;5034776;28;20079;-83
2023/06/01 09:49:30;;;;;;;9.20;3.50;;;;;;;-143.48;54.73;118439.88;5017242;28;20112;-79
2023/06/01 09:52:04;;;;;;;10.55;3.50;;;;;;;-143.48;50.65;118439.88;5017253;28;20021;-78
2023/06/01 09:54:41;;;;;;;8.25;3.35;;;;;;;-143.48;51.31;118439.88;5016962;28;20068;-77
2023/06/01 09:57:08;;;;;;;11.45;3.60;;;;;;;-143.48;49.85;118439.88;5015849;28;20112;-78
2023/06/01 09:59:44;;;;;;;10.10;3.42;;;;;;;-143.48;47.65;118439.88;5015528;28;20384;-76
2023/06/01 10:02:16;;;;;;;11.48;3.42;;;;;;;-143.48;48.54;118439.88;5015788;28;20045;-78
2023/06/01 10:04:47;;;;;;;12.40;3.60;;;;;;;-143.48;50.17;118439.88;5033603;28;20464;-78
2023/06/01 10:07:13;;;;;;;7.07;3.55;;;;;;;-143.48;51.51;118439.88;5033680;28;20105;-77
2023/06/01 10:09:41;;;;;;;8.18;3.17;;;;;;;-143.48;49.39;118439.88;5033850;28;20017;-76
2023/06/01 10:12:08;;;;;;;9.45;3.33;;;;;;;-143.48;52.63;118439.88;5016419;28;20053;-77
2023/06/01 10:14:33;;;;;;;10.82;3.72;;;;;;;-143.48;52.42;118439.88;5033898;28;20029;-76
2023/06/01 10:17:00;;;;;;;7.35;3.47;;;;;;;-143.48;50.42;118439.88;4999719;28;20029;-76
2023/06/01 10:19:25;;;;;;;9.77;3.03;;;;;;;-143.48;50.67;118439.88;5034110;28;20030;-77
2023/06/01 10:21:52;;;;;;;9.07;3.72;;;;;;;-143.48;50.27;118439.88;5016474;28;20031;-75
2023/06/01 10:24:18;;;;;;;8.70;3.28;;;;;;;-143.48;48.81;118439.88;5034094;28;20022;-76
2023/06/01 10:27:05;;;;;;;7.22;3.20;;;;;;;-143.48;48.23;118439.88;5016376;28;20492;-77
2023/06/01 10:29:31;;;;;;;8.05;3.10;;;;;;;-143.48;48.93;118439.88;5033700;28;20404;-77
2023/06/01 10:31:57;;;;;;;119.25;11.05;;;;;;;-143.48;47.63;118439.88;5034197;28;20055;-76
2023/06/01 10:34:52;;;;;;;9.43;2.75;;;;;;;-143.48;50.15;118439.88;5034069;28;20021;-76
2023/06/01 10:37:17;;;;;;;9.43;3.40;;;;;;;-143.48;49.69;118439.88;5003458;28;20095;-77
2023/06/01 10:39:43;;;;;;;13.07;3.40;;;;;;;-143.48;48.53;118439.88;5033812;28;20431;-77
2023/06/01 10:42:18;;;;;;;10.77;3.10;;;;;;;-143.48;49.22;118439.88;5017439;28;20030;-76
2023/06/01 10:44:44;;;;;;;6.80;2.75;;;;;;;-143.48;49.33;118439.88;5034082;28;20414;-76
2023/06/01 10:47:12;;;;;;;6.47;2.75;;;;;;;-143.48;49.13;118439.88;5037322;28;20087;-77
2023/06/01 10:49:46;;;;;;;40.95;5.30;;;;;;;-143.48;48.79;118439.88;5036470;28;20143;-77
2023/06/01 10:52:34;;;;;;;6.50;2.80;;;;;;;-143.48;48.94;118439.88;5035480;28;20021;-78
2023/06/01 10:55:13;;;;;;;11.95;2.92;;;;;;;-143.48;47.98;118439.88;5036754;28;20116;-77
2023/06/01 10:57:39;;;;;;;10.75;2.90;;;;;;;-143.48;49.72;118439.88;5016221;28;20127;-77
2023/06/01 11:00:15;;;;;;;6.75;2.58;;;;;;;-143.48;48.24;118439.88;5035479;28;20485;-78
2023/06/01 11:03:03;;;;;;;8.30;2.70;;;;;;;-143.48;46.95;118439.88;5038209;28;20454;-78
2023/06/01 11:05:48;;;;;;;6.50;2.72;;;;;;;-143.48;48.60;118439.88;5038117;28;20068;-78